Time;durP1;ratioP1;P1;durP2;ratioP2;P2;SDS_P1;SDS_P2;PMS_P1;PMS_P2;Temp;Humidity;BMP_temperature;BMP_pressure;BME280_temperature;BME280_humidity;BME280_pressure;Samples;Min_cycle;Max_cycle;Signal;HPM_P1;HPM_P2
2021/06/16 00:01:24;;;;;;;3.10;2.80;;;21.70;66.10;;;;;;10528754;28;20307;-79
2021/06/16 00:06:28;;;;;;;3.17;2.73;;;21.70;67.00;;;;;;10538333;28;20197;-79
2021/06/16 00:11:30;;;;;;;2.43;2.33;;;21.60;67.50;;;;;;10530775;28;20211;-79
2021/06/16 00:16:33;;;;;;;3.10;2.90;;;21.60;67.40;;;;;;10526756;28;20200;-79
2021/06/16 00:21:36;;;;;;;7.40;2.90;;;21.60;68.10;;;;;;10540209;28;20220;-79
2021/06/16 00:26:38;;;;;;;4.20;3.40;;;21.60;66.90;;;;;;10523761;28;20294;-79
2021/06/16 00:31:41;;;;;;;3.07;2.87;;;21.60;68.30;;;;;;10542383;28;20645;-79
2021/06/16 00:36:44;;;;;;;3.23;3.03;;;21.60;68.30;;;;;;10527581;28;20206;-79
2021/06/16 00:41:46;;;;;;;3.37;3.17;;;21.60;68.40;;;;;;10543253;28;20602;-79
2021/06/16 00:46:48;;;;;;;3.10;2.90;;;21.50;69.20;;;;;;10542342;28;20223;-79
2021/06/16 00:51:52;;;;;;;3.27;2.97;;;21.50;69.30;;;;;;10540886;28;20243;-79
2021/06/16 00:56:54;;;;;;;4.83;3.40;;;21.50;69.80;;;;;;10540344;28;20697;-79
2021/06/16 01:01:57;;;;;;;3.53;3.33;;;21.50;70.80;;;;;;10536115;28;20220;-79
2021/06/16 01:07:07;;;;;;;4.63;4.07;;;21.40;71.50;;;;;;10539950;28;20223;-79
2021/06/16 01:12:20;;;;;;;3.67;3.40;;;21.40;69.70;;;;;;10545820;28;20239;-79
2021/06/16 01:17:24;;;;;;;3.37;3.17;;;21.50;70.00;;;;;;10549690;28;20200;-79
2021/06/16 01:22:36;;;;;;;4.07;3.80;;;21.40;70.10;;;;;;10551095;28;20216;-79
2021/06/16 01:27:40;;;;;;;3.60;3.30;;;21.30;71.20;;;;;;10544644;28;20204;-79
2021/06/16 01:32:43;;;;;;;4.03;3.73;;;21.30;71.60;;;;;;10546735;28;20222;-79
2021/06/16 01:37:45;;;;;;;3.73;3.43;;;21.20;71.30;;;;;;10547803;28;20212;-79
2021/06/16 01:42:49;;;;;;;4.60;4.30;;;21.20;72.20;;;;;;10534554;28;20271;-79
2021/06/16 01:47:53;;;;;;;4.07;3.77;;;21.20;72.20;;;;;;10563430;28;20267;-79
2021/06/16 01:52:57;;;;;;;4.23;3.80;;;21.10;72.40;;;;;;10546498;28;20310;-79
2021/06/16 01:58:02;;;;;;;4.30;4.00;;;21.10;72.20;;;;;;10548640;28;20203;-79
2021/06/16 02:03:05;;;;;;;4.27;3.70;;;21.10;71.90;;;;;;10549040;28;20250;-79
2021/06/16 02:08:11;;;;;;;4.67;4.30;;;21.00;73.00;;;;;;10531004;28;20642;-79
2021/06/16 02:13:18;;;;;;;4.40;4.03;;;21.00;72.30;;;;;;10549873;28;20648;-79
2021/06/16 02:18:24;;;;;;;4.27;3.93;;;20.90;72.50;;;;;;10549252;28;20226;-79
2021/06/16 02:23:26;;;;;;;3.87;3.67;;;20.90;73.30;;;;;;10546030;28;20766;-79
2021/06/16 02:28:30;;;;;;;4.70;4.40;;;20.80;73.70;;;;;;10548051;28;20196;-79
2021/06/16 02:33:32;;;;;;;6.37;4.40;;;20.80;73.60;;;;;;10546339;28;20251;-79
2021/06/16 02:38:36;;;;;;;6.70;4.40;;;20.70;74.30;;;;;;10546474;28;20239;-79
2021/06/16 02:43:40;;;;;;;4.33;4.03;;;20.70;74.90;;;;;;10548327;28;20230;-79
2021/06/16 02:48:48;;;;;;;5.03;4.60;;;20.60;75.60;;;;;;10549671;28;20235;-79
2021/06/16 02:53:51;;;;;;;4.30;3.90;;;20.70;75.90;;;;;;10547563;28;20220;-79
2021/06/16 02:58:56;;;;;;;5.00;4.50;;;20.60;74.40;;;;;;10544630;28;20295;-79
2021/06/16 03:03:59;;;;;;;4.50;4.10;;;20.70;74.00;;;;;;10543392;28;20258;-79
2021/06/16 03:09:02;;;;;;;4.90;4.60;;;20.60;74.90;;;;;;10544781;28;20704;-79
2021/06/16 03:14:06;;;;;;;4.60;4.30;;;20.60;74.10;;;;;;10512346;28;20291;-79
2021/06/16 03:19:09;;;;;;;4.60;4.40;;;20.60;74.40;;;;;;10544703;28;20689;-79
2021/06/16 03:24:12;;;;;;;7.30;4.57;;;20.60;74.20;;;;;;10543018;28;20220;-79
2021/06/16 03:29:17;;;;;;;4.73;4.37;;;20.40;74.80;;;;;;10542229;28;20196;-79
2021/06/16 03:34:20;;;;;;;7.30;5.57;;;20.30;75.40;;;;;;10539555;28;20226;-79
2021/06/16 03:39:22;;;;;;;4.70;4.30;;;20.30;74.80;;;;;;10542173;28;20218;-79
2021/06/16 03:44:26;;;;;;;4.50;4.20;;;20.30;75.10;;;;;;10540273;28;20734;-79
2021/06/16 03:49:30;;;;;;;4.27;3.97;;;20.30;75.80;;;;;;10541507;28;20245;-79
2021/06/16 03:54:35;;;;;;;4.70;4.20;;;20.30;75.70;;;;;;10542796;28;20219;-79
2021/06/16 03:59:41;;;;;;;5.20;4.80;;;20.30;76.30;;;;;;10537505;28;20218;-79
2021/06/16 04:04:44;;;;;;;4.87;4.57;;;20.30;75.90;;;;;;10533553;28;20228;-81
2021/06/16 04:09:49;;;;;;;5.17;4.67;;;20.30;75.20;;;;;;10543563;28;20200;-79
2021/06/16 04:14:53;;;;;;;4.50;4.20;;;20.40;75.40;;;;;;10529522;28;20909;-79
2021/06/16 04:19:55;;;;;;;5.37;4.97;;;20.40;76.40;;;;;;10536713;28;20264;-79
2021/06/16 04:24:57;;;;;;;4.97;4.47;;;20.40;77.00;;;;;;10541597;28;20243;-79
2021/06/16 04:30:01;;;;;;;5.00;4.60;;;20.40;77.10;;;;;;10524514;28;20230;-79
2021/06/16 04:35:04;;;;;;;4.50;4.10;;;20.50;76.10;;;;;;10541166;28;20685;-79
2021/06/16 04:40:08;;;;;;;4.23;3.90;;;20.60;76.80;;;;;;10539136;28;20255;-80
2021/06/16 04:45:12;;;;;;;4.90;4.50;;;20.60;77.10;;;;;;10549261;28;20753;-79
2021/06/16 04:50:16;;;;;;;4.63;4.33;;;20.70;76.80;;;;;;10541090;28;20295;-79
2021/06/16 04:55:18;;;;;;;5.60;4.60;;;20.70;77.80;;;;;;10547817;28;20566;-79
2021/06/16 05:00:23;;;;;;;5.00;4.60;;;20.80;77.70;;;;;;10542663;28;20656;-80
2021/06/16 05:05:25;;;;;;;5.50;4.23;;;20.90;76.80;;;;;;10534908;22;20233;-79
2021/06/16 05:10:27;;;;;;;5.70;4.60;;;21.00;78.20;;;;;;10497065;28;20698;-78
2021/06/16 05:15:30;;;;;;;12.73;6.13;;;21.10;77.80;;;;;;10534380;28;20243;-78
2021/06/16 05:20:33;;;;;;;6.10;4.60;;;21.10;77.30;;;;;;10543840;28;20350;-78
2021/06/16 05:25:35;;;;;;;5.20;4.80;;;21.20;77.80;;;;;;10539277;28;20219;-78
2021/06/16 05:30:38;;;;;;;4.93;4.63;;;21.20;77.70;;;;;;10544928;28;20200;-78
2021/06/16 05:35:40;;;;;;;5.10;4.60;;;21.30;78.40;;;;;;10542864;28;20270;-78
2021/06/16 05:40:43;;;;;;;4.90;4.50;;;21.40;78.40;;;;;;10544352;28;20274;-78
2021/06/16 05:45:46;;;;;;;5.27;4.70;;;21.40;78.60;;;;;;10543875;28;20230;-78
2021/06/16 05:50:48;;;;;;;4.80;4.43;;;21.50;77.20;;;;;;10543185;28;20216;-77
2021/06/16 05:55:51;;;;;;;5.00;4.70;;;21.50;77.70;;;;;;10543200;28;20291;-77
2021/06/16 06:00:54;;;;;;;4.70;4.33;;;21.60;77.20;;;;;;10542544;28;20768;-77
2021/06/16 06:05:56;;;;;;;4.00;3.80;;;21.70;77.70;;;;;;10542142;28;20669;-79
2021/06/16 06:10:58;;;;;;;7.13;4.70;;;21.80;78.00;;;;;;10545391;28;20202;-78
2021/06/16 06:16:02;;;;;;;5.30;4.80;;;21.90;78.70;;;;;;10540317;28;20234;-78
2021/06/16 06:21:04;;;;;;;4.83;4.53;;;22.00;77.40;;;;;;10540152;28;20220;-78
2021/06/16 06:26:06;;;;;;;4.43;4.07;;;22.10;76.90;;;;;;10527822;28;20252;-78
2021/06/16 06:31:10;;;;;;;4.47;4.17;;;22.30;76.70;;;;;;10542977;28;20200;-79
2021/06/16 06:36:12;;;;;;;4.30;4.00;;;22.50;76.70;;;;;;10537010;28;20251;-78
2021/06/16 06:41:15;;;;;;;4.90;4.50;;;22.70;75.90;;;;;;10540292;28;20295;-79
2021/06/16 06:46:18;;;;;;;4.60;4.20;;;22.90;74.70;;;;;;10542889;28;20298;-78
2021/06/16 06:51:20;;;;;;;4.67;4.33;;;23.20;74.00;;;;;;10543089;28;20674;-79
2021/06/16 06:56:22;;;;;;;8.37;4.57;;;23.60;70.30;;;;;;10543048;28;20262;-77
2021/06/16 07:01:26;;;;;;;9.87;4.70;;;23.90;71.20;;;;;;10529011;28;20248;-79
2021/06/16 07:06:29;;;;;;;6.57;5.23;;;24.20;68.60;;;;;;10543176;28;20302;-79
2021/06/16 07:11:31;;;;;;;6.40;4.73;;;24.50;69.60;;;;;;10542151;28;20200;-79
2021/06/16 07:16:35;;;;;;;4.43;4.03;;;24.80;67.30;;;;;;10543566;28;20207;-80
2021/06/16 07:21:37;;;;;;;4.23;3.93;;;25.20;68.70;;;;;;10534116;28;20226;-78
2021/06/16 07:26:39;;;;;;;7.67;4.37;;;25.60;68.60;;;;;;10542660;28;20203;-80
2021/06/16 07:31:42;;;;;;;5.03;4.57;;;26.20;67.10;;;;;;10512795;28;20256;-81
2021/06/16 07:36:45;;;;;;;4.63;4.30;;;26.60;65.00;;;;;;10508953;28;20296;-78
2021/06/16 07:41:47;;;;;;;4.53;4.20;;;27.10;64.10;;;;;;10501655;28;20302;-78
2021/06/16 07:46:50;;;;;;;4.70;4.30;;;27.60;60.70;;;;;;10506436;28;20579;-79
2021/06/16 07:51:53;;;;;;;9.70;5.03;;;28.00;61.00;;;;;;10503164;28;20216;-78
2021/06/16 07:56:55;;;;;;;4.77;4.10;;;28.40;60.30;;;;;;10507479;28;20291;-78
2021/06/16 08:01:58;;;;;;;6.10;5.60;;;28.90;60.30;;;;;;10508007;28;20315;-78
2021/06/16 08:07:01;;;;;;;7.17;4.63;;;29.40;59.60;;;;;;10507074;28;20278;-79
2021/06/16 08:12:04;;;;;;;5.20;4.67;;;29.80;57.90;;;;;;10504327;28;20643;-78
2021/06/16 08:17:08;;;;;;;4.43;4.13;;;30.20;56.00;;;;;;10509166;28;20553;-79
2021/06/16 08:22:13;;;;;;;3.80;3.50;;;30.60;54.40;;;;;;10514254;28;20618;-79
2021/06/16 08:27:15;;;;;;;3.50;3.20;;;30.80;53.00;;;;;;10510976;28;20231;-79
2021/06/16 08:32:18;;;;;;;4.20;3.47;;;31.10;50.20;;;;;;10491406;28;20220;-79
2021/06/16 08:37:20;;;;;;;4.63;3.50;;;31.40;49.20;;;;;;10508526;28;20189;-79
2021/06/16 08:42:23;;;;;;;3.20;3.00;;;31.70;49.40;;;;;;10505780;28;20250;-79
2021/06/16 08:47:28;;;;;;;3.50;3.30;;;31.80;48.40;;;;;;10531003;28;20287;-79
2021/06/16 08:52:30;;;;;;;3.97;3.50;;;32.20;48.10;;;;;;10524137;28;20215;-79
2021/06/16 08:57:33;;;;;;;3.37;3.17;;;32.60;46.40;;;;;;10504729;28;20254;-79
2021/06/16 09:02:37;;;;;;;4.57;3.80;;;32.90;47.20;;;;;;10517470;28;20213;-79
2021/06/16 09:07:41;;;;;;;2.93;2.77;;;33.30;46.30;;;;;;10522030;28;20196;-80
2021/06/16 09:12:53;;;;;;;4.97;3.20;;;33.70;46.60;;;;;;10539924;28;20702;-78
2021/06/16 09:18:05;;;;;;;3.37;3.17;;;34.10;45.60;;;;;;10539587;28;20199;-80
2021/06/16 09:23:10;;;;;;;3.43;3.23;;;34.30;44.50;;;;;;10540659;28;20615;-80
2021/06/16 09:28:12;;;;;;;3.00;2.70;;;34.60;44.60;;;;;;10539467;28;20192;-79
2021/06/16 09:33:17;;;;;;;4.03;3.63;;;35.00;45.10;;;;;;10542023;28;20488;-79
2021/06/16 09:38:25;;;;;;;3.90;3.60;;;35.30;43.50;;;;;;10541650;28;20729;-80
2021/06/16 09:43:29;;;;;;;4.63;3.07;;;35.60;43.30;;;;;;10548991;28;20280;-80
2021/06/16 09:48:34;;;;;;;3.60;3.27;;;36.30;41.80;;;;;;10548214;28;20257;-80
2021/06/16 09:53:57;;;;;;;3.30;3.10;;;37.20;40.30;;;;;;10544246;28;20212;-79
2021/06/16 09:59:00;;;;;;;3.90;3.65;;;38.50;40.30;;;;;;10547072;28;20199;-79
2021/06/16 10:04:03;;;;;;;3.83;3.55;;;39.90;39.00;;;;;;10546169;28;20283;-80
2021/06/16 10:09:08;;;;;;;3.50;3.20;;;41.30;36.80;;;;;;10548318;28;20203;-80
2021/06/16 10:14:10;;;;;;;3.63;3.42;;;42.00;36.80;;;;;;10546363;28;20211;-80
2021/06/16 10:19:14;;;;;;;4.07;3.40;;;42.80;35.40;;;;;;10536641;28;20203;-80
2021/06/16 10:24:16;;;;;;;3.60;3.25;;;43.40;33.50;;;;;;10534031;28;20222;-79
2021/06/16 10:29:19;;;;;;;2.28;2.17;;;42.00;33.10;;;;;;10517473;28;20277;-80
2021/06/16 10:34:23;;;;;;;3.87;3.67;;;39.70;34.40;;;;;;10526762;28;20211;-79
2021/06/16 10:39:27;;;;;;;3.60;2.63;;;37.60;35.90;;;;;;10510085;28;20274;-80
2021/06/16 10:44:30;;;;;;;7.67;4.47;;;35.80;38.90;;;;;;10514126;28;20250;-79
2021/06/16 10:49:55;;;;;;;3.60;3.40;;;34.70;40.20;;;;;;10511713;28;20201;-80
2021/06/16 10:54:59;;;;;;;4.00;3.67;;;33.60;42.30;;;;;;10513634;28;20220;-80
2021/06/16 11:00:05;;;;;;;4.37;4.07;;;32.80;43.10;;;;;;10504985;28;20236;-80
2021/06/16 11:05:22;;;;;;;3.87;3.60;;;32.20;42.60;;;;;;10533144;22;20243;-78
2021/06/16 11:10:44;;;;;;;3.97;3.70;;;31.80;44.50;;;;;;10503304;28;20231;-78
2021/06/16 11:15:46;;;;;;;3.67;3.43;;;31.40;46.40;;;;;;10505598;28;20232;-79
2021/06/16 11:20:59;;;;;;;3.43;3.13;;;31.00;47.80;;;;;;10506817;28;20244;-79
2021/06/16 11:26:01;;;;;;;4.13;3.70;;;30.70;46.20;;;;;;10504207;28;20224;-80
2021/06/16 11:31:06;;;;;;;3.43;3.23;;;30.40;47.20;;;;;;10504378;28;20196;-78
2021/06/16 11:36:12;;;;;;;4.30;4.00;;;30.30;47.70;;;;;;10501485;28;20255;-78
2021/06/16 11:41:17;;;;;;;4.47;4.17;;;30.10;46.10;;;;;;10506111;28;20597;-78
2021/06/16 11:46:26;;;;;;;4.73;4.33;;;29.90;47.00;;;;;;10505662;28;20225;-79
2021/06/16 11:51:32;;;;;;;4.20;3.80;;;29.80;48.00;;;;;;10501312;28;20191;-79
2021/06/16 11:56:40;;;;;;;7.63;4.00;;;29.70;50.60;;;;;;10502844;28;20706;-79
2021/06/16 12:01:44;;;;;;;4.20;3.90;;;29.60;48.80;;;;;;10504837;28;20224;-79
2021/06/16 12:06:55;;;;;;;3.60;3.40;;;29.60;51.00;;;;;;10501158;28;20616;-80
2021/06/16 12:11:58;;;;;;;4.10;3.80;;;29.50;48.00;;;;;;10504797;28;20284;-78
2021/06/16 12:17:05;;;;;;;4.20;3.90;;;29.60;47.70;;;;;;10503628;28;20200;-79
2021/06/16 12:22:10;;;;;;;4.80;4.50;;;29.60;48.20;;;;;;10502568;28;20218;-79
2021/06/16 12:27:14;;;;;;;4.13;3.83;;;29.70;47.90;;;;;;10502533;28;20231;-78
2021/06/16 12:32:28;;;;;;;4.30;4.00;;;29.70;48.90;;;;;;10502716;28;20224;-79
2021/06/16 12:37:31;;;;;;;5.10;4.77;;;29.70;49.10;;;;;;10502446;28;20200;-78
2021/06/16 12:42:37;;;;;;;4.10;3.73;;;29.70;48.60;;;;;;10505798;28;20274;-79
2021/06/16 12:47:40;;;;;;;4.70;4.30;;;29.80;48.30;;;;;;10502314;28;20275;-79
2021/06/16 12:52:43;;;;;;;4.10;3.87;;;29.80;47.30;;;;;;10504282;28;20629;-79
2021/06/16 12:57:49;;;;;;;4.73;4.33;;;29.90;47.10;;;;;;10506451;28;20227;-81
2021/06/16 13:02:51;;;;;;;3.83;3.53;;;29.90;47.80;;;;;;10500469;28;20232;-79
2021/06/16 13:07:56;;;;;;;4.03;3.80;;;30.00;47.60;;;;;;10506152;28;20227;-79
2021/06/16 13:13:01;;;;;;;4.20;3.90;;;30.00;46.80;;;;;;10512683;28;20216;-79
2021/06/16 13:18:03;;;;;;;4.33;4.03;;;30.10;47.50;;;;;;10508203;28;20676;-79
2021/06/16 13:23:19;;;;;;;3.80;3.50;;;30.20;47.40;;;;;;10507153;28;20256;-79
2021/06/16 13:28:24;;;;;;;3.97;3.70;;;30.20;47.00;;;;;;10506015;28;20265;-78
2021/06/16 13:33:31;;;;;;;3.90;3.60;;;30.20;46.90;;;;;;10505259;28;20274;-78
2021/06/16 13:38:35;;;;;;;4.50;3.57;;;30.20;47.90;;;;;;10507080;28;20201;-79
2021/06/16 13:43:37;;;;;;;3.83;3.40;;;30.20;47.50;;;;;;10508492;28;20571;-79
2021/06/16 13:48:39;;;;;;;8.00;4.17;;;30.10;48.30;;;;;;10503285;28;20200;-78
2021/06/16 13:53:43;;;;;;;4.50;4.20;;;30.10;49.80;;;;;;10506508;28;20217;-79
2021/06/16 13:58:45;;;;;;;6.60;4.80;;;30.00;49.60;;;;;;10504735;28;20236;-79
2021/06/16 14:03:47;;;;;;;3.00;2.80;;;29.80;49.90;;;;;;10509126;28;20224;-79
2021/06/16 14:08:51;;;;;;;4.50;4.20;;;29.70;48.20;;;;;;10507931;28;20215;-78
2021/06/16 14:13:56;;;;;;;3.97;3.67;;;29.60;48.30;;;;;;10509774;28;20655;-78
2021/06/16 14:18:58;;;;;;;3.50;3.30;;;29.50;51.00;;;;;;10508854;28;20196;-79
2021/06/16 14:24:01;;;;;;;4.47;3.90;;;29.40;49.30;;;;;;10504072;28;20229;-79
2021/06/16 14:29:04;;;;;;;3.90;3.70;;;29.30;50.20;;;;;;10507661;28;20614;-79
2021/06/16 14:34:06;;;;;;;6.80;4.60;;;29.30;48.60;;;;;;10503797;28;20246;-78
2021/06/16 14:39:10;;;;;;;4.57;4.17;;;29.30;50.50;;;;;;10507049;28;20200;-79
2021/06/16 14:44:12;;;;;;;4.17;3.73;;;29.20;51.80;;;;;;10506554;28;20250;-78
2021/06/16 14:49:14;;;;;;;4.50;4.20;;;29.10;53.00;;;;;;10507311;28;20204;-78
2021/06/16 14:54:18;;;;;;;4.13;3.77;;;29.00;50.60;;;;;;10502388;28;20247;-78
2021/06/16 14:59:20;;;;;;;4.07;3.67;;;29.10;48.20;;;;;;10489971;28;20205;-79
2021/06/16 15:04:23;;;;;;;4.50;4.10;;;29.10;49.80;;;;;;10514765;28;20229;-79
2021/06/16 15:09:27;;;;;;;5.03;4.47;;;29.00;50.30;;;;;;10506260;28;20192;-79
2021/06/16 15:14:29;;;;;;;4.60;4.20;;;28.90;51.40;;;;;;10506775;28;20212;-79
2021/06/16 15:19:31;;;;;;;4.03;3.70;;;28.80;51.50;;;;;;10504710;28;20547;-79
2021/06/16 15:24:34;;;;;;;5.10;4.60;;;28.70;50.70;;;;;;10507933;28;20251;-79
2021/06/16 15:29:36;;;;;;;4.27;3.87;;;28.70;53.00;;;;;;10507927;28;20687;-79
2021/06/16 15:34:39;;;;;;;5.80;3.77;;;28.60;52.50;;;;;;10501072;28;20648;-79
2021/06/16 15:39:44;;;;;;;4.63;4.23;;;28.50;51.30;;;;;;10506873;28;20193;-79
2021/06/16 15:44:46;;;;;;;6.63;4.10;;;28.50;52.70;;;;;;10498635;28;20218;-78
2021/06/16 15:49:49;;;;;;;4.60;4.20;;;28.40;52.40;;;;;;10502767;28;20254;-78
2021/06/16 15:54:52;;;;;;;5.03;4.73;;;28.50;49.50;;;;;;10481781;28;20270;-78
2021/06/16 15:59:54;;;;;;;3.50;3.30;;;28.50;52.40;;;;;;10497693;28;20204;-81
2021/06/16 16:04:57;;;;;;;4.17;3.83;;;28.50;52.00;;;;;;10485644;28;20239;-79
2021/06/16 16:10:00;;;;;;;4.30;3.90;;;28.50;51.50;;;;;;10472043;28;20225;-78
2021/06/16 16:15:02;;;;;;;4.70;3.47;;;28.40;51.70;;;;;;10497210;28;20251;-79
2021/06/16 16:20:07;;;;;;;4.07;3.83;;;28.40;50.70;;;;;;10488764;28;20684;-79
2021/06/16 16:25:11;;;;;;;4.50;4.17;;;28.50;50.60;;;;;;10495523;28;20247;-79
2021/06/16 16:30:14;;;;;;;4.83;4.50;;;28.70;49.80;;;;;;10498402;28;20231;-79
2021/06/16 16:35:16;;;;;;;4.20;3.90;;;28.70;49.40;;;;;;10500325;28;20242;-79
2021/06/16 16:40:22;;;;;;;4.27;3.87;;;28.80;49.20;;;;;;10502444;28;20219;-79
2021/06/16 16:45:24;;;;;;;3.87;3.67;;;28.80;49.30;;;;;;10509753;28;20220;-79
2021/06/16 16:50:26;;;;;;;4.70;3.90;;;28.80;49.90;;;;;;10508166;28;20281;-79
2021/06/16 16:55:30;;;;;;;3.90;3.70;;;28.80;49.50;;;;;;10506648;28;20307;-79
2021/06/16 17:00:33;;;;;;;4.07;3.80;;;28.90;49.70;;;;;;10504827;28;20763;-79
2021/06/16 17:06:01;;;;;;;4.30;4.00;;;28.90;50.50;;;;;;10531872;22;20699;-82
2021/06/16 17:11:12;;;;;;;3.80;3.60;;;28.90;49.90;;;;;;10510596;28;20283;-82
2021/06/16 17:16:16;;;;;;;3.60;3.40;;;28.80;49.10;;;;;;10507455;28;20235;-82
2021/06/16 17:21:21;;;;;;;3.93;3.70;;;28.80;48.50;;;;;;10484586;28;20270;-80
2021/06/16 17:26:27;;;;;;;4.63;4.17;;;28.80;48.60;;;;;;10488697;28;20224;-82
2021/06/16 17:31:32;;;;;;;4.27;3.97;;;28.80;50.20;;;;;;10482992;28;20220;-81
2021/06/16 17:36:36;;;;;;;4.40;4.10;;;28.70;52.00;;;;;;10493241;28;20220;-82
2021/06/16 17:41:41;;;;;;;4.13;3.83;;;28.60;51.80;;;;;;10498004;28;20209;-80
2021/06/16 17:46:45;;;;;;;4.50;4.20;;;28.50;53.30;;;;;;10501909;28;20445;-81
2021/06/16 17:51:48;;;;;;;4.70;4.30;;;28.40;54.80;;;;;;10487489;28;20316;-80
2021/06/16 17:56:52;;;;;;;3.77;3.47;;;28.30;56.20;;;;;;10495655;28;20784;-82
2021/06/16 18:01:55;;;;;;;4.33;3.97;;;28.20;56.50;;;;;;10494643;28;20220;-81
2021/06/16 18:06:57;;;;;;;3.67;3.47;;;28.10;57.20;;;;;;10516595;28;20295;-81
2021/06/16 18:12:00;;;;;;;4.53;4.23;;;28.00;58.00;;;;;;10506170;28;20222;-81
2021/06/16 18:17:03;;;;;;;3.97;3.77;;;27.90;58.40;;;;;;10498981;28;20228;-82
2021/06/16 18:22:06;;;;;;;3.53;3.33;;;27.80;58.80;;;;;;10500347;28;20251;-80
2021/06/16 18:27:09;;;;;;;4.87;3.20;;;27.70;58.80;;;;;;10498465;28;20307;-79
2021/06/16 18:32:13;;;;;;;4.03;3.67;;;27.60;58.50;;;;;;10501479;28;20208;-81
2021/06/16 18:37:15;;;;;;;3.87;3.57;;;27.50;58.90;;;;;;10500506;28;20224;-81
2021/06/16 18:42:18;;;;;;;3.93;3.60;;;27.30;58.50;;;;;;10481017;28;20299;-81
2021/06/16 18:47:23;;;;;;;5.30;3.90;;;27.20;58.80;;;;;;10498419;28;20244;-81
2021/06/16 18:52:28;;;;;;;4.20;3.90;;;27.10;58.60;;;;;;10475234;28;20200;-81
2021/06/16 18:57:34;;;;;;;4.40;4.00;;;27.00;58.90;;;;;;10469011;28;20212;-81
2021/06/16 19:02:42;;;;;;;3.60;3.40;;;26.90;58.60;;;;;;10478424;28;20578;-80
2021/06/16 19:07:44;;;;;;;3.83;3.60;;;26.80;59.00;;;;;;10461229;28;20204;-81
2021/06/16 19:12:49;;;;;;;7.53;4.60;;;26.70;60.50;;;;;;10473917;28;20235;-80
2021/06/16 19:17:52;;;;;;;176.80;69.30;;;26.70;59.50;;;;;;10491256;28;20208;-82
2021/06/16 19:22:57;;;;;;;7.97;7.17;;;26.50;59.70;;;;;;10466268;28;20293;-81
2021/06/16 19:28:00;;;;;;;7.03;6.43;;;26.50;59.60;;;;;;10491792;28;20675;-82
2021/06/16 19:33:06;;;;;;;4.53;3.90;;;26.40;59.80;;;;;;10484945;28;20235;-82
2021/06/16 19:38:08;;;;;;;5.20;4.80;;;26.30;60.30;;;;;;10490179;28;20240;-81
2021/06/16 19:43:11;;;;;;;4.33;3.90;;;26.20;59.10;;;;;;10468776;28;20224;-80
2021/06/16 19:48:14;;;;;;;4.13;3.60;;;26.10;59.80;;;;;;10497492;28;20226;-81
2021/06/16 19:53:16;;;;;;;4.53;4.13;;;26.00;59.50;;;;;;10504559;28;20220;-81
2021/06/16 19:58:19;;;;;;;4.37;3.97;;;26.00;60.20;;;;;;10504017;28;20283;-81
2021/06/16 20:03:21;;;;;;;6.80;4.40;;;25.90;59.70;;;;;;10502808;28;20789;-82
2021/06/16 20:08:23;;;;;;;4.37;4.03;;;25.80;59.10;;;;;;10499693;28;20201;-82
2021/06/16 20:13:27;;;;;;;9.47;4.00;;;25.70;59.90;;;;;;10501871;28;20212;-81
2021/06/16 20:18:29;;;;;;;4.37;4.10;;;25.60;61.40;;;;;;10473283;28;20661;-80
2021/06/16 20:23:31;;;;;;;4.73;4.33;;;25.60;62.30;;;;;;10476196;28;20254;-81
2021/06/16 20:28:36;;;;;;;4.13;3.83;;;25.50;59.80;;;;;;10498815;28;20231;-82
2021/06/16 20:33:38;;;;;;;4.90;3.80;;;25.50;60.70;;;;;;10500763;28;20313;-80
2021/06/16 20:38:42;;;;;;;4.97;4.47;;;25.40;60.80;;;;;;10500433;28;20242;-81
2021/06/16 20:43:48;;;;;;;5.63;4.47;;;25.40;60.00;;;;;;10503247;28;20216;-79
2021/06/16 20:48:51;;;;;;;5.20;4.80;;;25.30;60.30;;;;;;10495667;28;20239;-81
2021/06/16 20:53:53;;;;;;;4.27;3.97;;;25.30;60.10;;;;;;10486828;28;20715;-81
2021/06/16 20:58:56;;;;;;;4.33;3.73;;;25.20;59.50;;;;;;10485760;28;20881;-81
2021/06/16 21:03:58;;;;;;;4.37;3.93;;;25.20;59.30;;;;;;10485427;28;20255;-80
2021/06/16 21:09:01;;;;;;;4.70;4.30;;;25.20;59.00;;;;;;10512190;28;20246;-81
2021/06/16 21:14:04;;;;;;;4.17;3.80;;;25.10;59.60;;;;;;10501357;28;20217;-82
2021/06/16 21:19:07;;;;;;;4.37;4.00;;;25.10;59.00;;;;;;10495563;28;20208;-82
2021/06/16 21:24:09;;;;;;;3.33;3.13;;;25.00;59.30;;;;;;10502510;28;20288;-82
2021/06/16 21:29:13;;;;;;;4.37;3.97;;;25.00;59.10;;;;;;10492391;28;20632;-80
2021/06/16 21:34:15;;;;;;;3.50;3.30;;;24.90;59.30;;;;;;10498330;28;20320;-80
2021/06/16 21:39:17;;;;;;;4.03;3.70;;;24.90;60.20;;;;;;10504877;28;20196;-81
2021/06/16 21:44:20;;;;;;;4.13;3.83;;;24.80;60.90;;;;;;10488932;28;20613;-79
2021/06/16 21:49:23;;;;;;;3.70;3.40;;;24.70;62.10;;;;;;10504797;28;20200;-79
2021/06/16 21:54:26;;;;;;;3.90;3.70;;;24.60;60.80;;;;;;10499917;28;20241;-80
2021/06/16 21:59:30;;;;;;;3.87;3.47;;;24.50;61.40;;;;;;10505639;28;20211;-82
2021/06/16 22:04:32;;;;;;;4.63;3.70;;;24.40;61.80;;;;;;10505634;28;20224;-80
2021/06/16 22:09:35;;;;;;;5.10;3.90;;;24.30;61.50;;;;;;10504842;28;20216;-82
2021/06/16 22:14:39;;;;;;;3.93;3.63;;;24.30;61.40;;;;;;10498712;28;20212;-81
2021/06/16 22:19:41;;;;;;;4.70;4.30;;;24.30;61.70;;;;;;10488913;28;20734;-81
2021/06/16 22:24:43;;;;;;;4.33;3.77;;;24.30;61.50;;;;;;10486668;28;20252;-81
2021/06/16 22:29:53;;;;;;;4.17;3.87;;;24.20;61.70;;;;;;10496657;28;20228;-82
2021/06/16 22:34:59;;;;;;;10.03;4.20;;;23.90;61.90;;;;;;10487766;28;20599;-81
2021/06/16 22:40:05;;;;;;;4.20;3.90;;;23.80;62.50;;;;;;10490755;28;20557;-81
2021/06/16 22:45:14;;;;;;;4.23;3.83;;;23.80;63.20;;;;;;10491334;28;20229;-82
2021/06/16 22:50:31;;;;;;;3.70;3.50;;;23.70;63.80;;;;;;10486424;28;20204;-80
2021/06/16 22:55:51;;;;;;;4.07;3.77;;;23.60;63.70;;;;;;10481464;28;20216;-82
2021/06/16 23:00:56;;;;;;;4.80;3.83;;;23.60;64.70;;;;;;10466849;28;21520;-81
2021/06/16 23:05:58;;;;;;;3.43;3.23;;;23.50;63.20;;;;;;10476612;28;20599;-82
2021/06/16 23:11:00;;;;;;;4.30;3.97;;;23.40;63.70;;;;;;10486897;28;20632;-81
2021/06/16 23:16:13;;;;;;;5.53;3.60;;;23.30;64.10;;;;;;10486855;28;20224;-81
2021/06/16 23:21:15;;;;;;;4.30;3.90;;;23.20;65.10;;;;;;10481272;28;20205;-82
2021/06/16 23:26:17;;;;;;;5.10;4.20;;;23.20;64.90;;;;;;10492054;28;20228;-82
2021/06/16 23:31:21;;;;;;;4.10;3.70;;;23.20;64.80;;;;;;10473604;28;20692;-80
2021/06/16 23:36:24;;;;;;;3.77;3.47;;;23.10;65.00;;;;;;10467685;28;20240;-81
2021/06/16 23:41:26;;;;;;;4.27;3.50;;;23.10;65.70;;;;;;10465404;28;20280;-81
2021/06/16 23:46:29;;;;;;;4.20;4.00;;;23.10;64.70;;;;;;10498138;28;20255;-81
2021/06/16 23:51:32;;;;;;;5.33;4.10;;;23.10;66.10;;;;;;10491420;28;20207;-82
2021/06/16 23:56:34;;;;;;;4.30;3.90;;;23.00;64.60;;;;;;10470393;28;20719;-80
